sensor_id;sensor_type;location;lat;lon;timestamp;P1;durP1;ratioP1;P2;durP2;ratioP2
4148;SDS011;2088;51.032;7.082;2024-02-16T00:02:01;5.67;;;1.10;;
4148;SDS011;2088;51.032;7.082;2024-02-16T00:04:28;2.10;;;1.03;;
4148;SDS011;2088;51.032;7.082;2024-02-16T00:06:56;2.73;;;1.27;;
4148;SDS011;2088;51.032;7.082;2024-02-16T00:09:23;2.20;;;1.30;;
4148;SDS011;2088;51.032;7.082;2024-02-16T00:11:51;7.53;;;1.43;;
4148;SDS011;2088;51.032;7.082;2024-02-16T00:14:18;2.60;;;1.20;;
4148;SDS011;2088;51.032;7.082;2024-02-16T00:16:46;11.53;;;2.63;;
4148;SDS011;2088;51.032;7.082;2024-02-16T00:19:14;6.40;;;1.40;;
4148;SDS011;2088;51.032;7.082;2024-02-16T00:21:41;1.57;;;1.10;;
4148;SDS011;2088;51.032;7.082;2024-02-16T00:24:08;2.33;;;1.17;;
4148;SDS011;2088;51.032;7.082;2024-02-16T00:26:35;1.10;;;0.90;;
4148;SDS011;2088;51.032;7.082;2024-02-16T00:29:05;4.40;;;1.83;;
4148;SDS011;2088;51.032;7.082;2024-02-16T00:31:33;1.30;;;1.00;;
4148;SDS011;2088;51.032;7.082;2024-02-16T00:34:00;1.97;;;1.30;;
4148;SDS011;2088;51.032;7.082;2024-02-16T00:36:28;2.40;;;1.53;;
4148;SDS011;2088;51.032;7.082;2024-02-16T00:38:55;2.10;;;1.43;;
4148;SDS011;2088;51.032;7.082;2024-02-16T00:41:23;10.13;;;1.70;;
4148;SDS011;2088;51.032;7.082;2024-02-16T00:43:50;1.20;;;1.07;;
4148;SDS011;2088;51.032;7.082;2024-02-16T00:46:19;1.13;;;0.90;;
4148;SDS011;2088;51.032;7.082;2024-02-16T00:48:48;4.17;;;1.37;;
4148;SDS011;2088;51.032;7.082;2024-02-16T00:51:15;2.77;;;1.47;;
4148;SDS011;2088;51.032;7.082;2024-02-16T00:53:42;2.73;;;1.20;;
4148;SDS011;2088;51.032;7.082;2024-02-16T00:56:09;1.53;;;1.10;;
4148;SDS011;2088;51.032;7.082;2024-02-16T00:58:36;4.07;;;1.60;;
4148;SDS011;2088;51.032;7.082;2024-02-16T01:01:03;3.20;;;1.30;;
4148;SDS011;2088;51.032;7.082;2024-02-16T01:03:36;2.07;;;1.30;;
4148;SDS011;2088;51.032;7.082;2024-02-16T01:06:04;4.17;;;1.40;;
4148;SDS011;2088;51.032;7.082;2024-02-16T01:08:31;1.87;;;1.20;;
4148;SDS011;2088;51.032;7.082;2024-02-16T01:10:58;3.67;;;1.23;;
4148;SDS011;2088;51.032;7.082;2024-02-16T01:13:25;3.27;;;1.17;;
4148;SDS011;2088;51.032;7.082;2024-02-16T01:15:52;3.30;;;1.60;;
4148;SDS011;2088;51.032;7.082;2024-02-16T01:18:19;3.00;;;1.33;;
4148;SDS011;2088;51.032;7.082;2024-02-16T01:20:48;3.40;;;1.00;;
4148;SDS011;2088;51.032;7.082;2024-02-16T01:23:15;2.00;;;1.33;;
4148;SDS011;2088;51.032;7.082;2024-02-16T01:25:42;1.40;;;0.93;;
4148;SDS011;2088;51.032;7.082;2024-02-16T01:28:09;1.20;;;0.93;;
4148;SDS011;2088;51.032;7.082;2024-02-16T01:30:37;1.10;;;0.97;;
4148;SDS011;2088;51.032;7.082;2024-02-16T01:33:04;2.53;;;1.50;;
4148;SDS011;2088;51.032;7.082;2024-02-16T01:35:31;2.47;;;1.20;;
4148;SDS011;2088;51.032;7.082;2024-02-16T01:38:00;1.50;;;1.20;;
4148;SDS011;2088;51.032;7.082;2024-02-16T01:40:27;3.20;;;1.47;;
4148;SDS011;2088;51.032;7.082;2024-02-16T01:42:54;11.87;;;1.20;;
4148;SDS011;2088;51.032;7.082;2024-02-16T01:45:21;1.57;;;1.00;;
4148;SDS011;2088;51.032;7.082;2024-02-16T01:47:49;1.27;;;0.90;;
4148;SDS011;2088;51.032;7.082;2024-02-16T01:50:17;1.20;;;1.10;;
4148;SDS011;2088;51.032;7.082;2024-02-16T01:52:44;2.90;;;1.33;;
4148;SDS011;2088;51.032;7.082;2024-02-16T01:55:13;1.43;;;1.07;;
4148;SDS011;2088;51.032;7.082;2024-02-16T01:57:42;2.13;;;1.10;;
4148;SDS011;2088;51.032;7.082;2024-02-16T02:00:10;1.40;;;1.17;;
4148;SDS011;2088;51.032;7.082;2024-02-16T02:02:40;1.73;;;1.30;;
4148;SDS011;2088;51.032;7.082;2024-02-16T02:05:07;3.70;;;1.20;;
4148;SDS011;2088;51.032;7.082;2024-02-16T02:07:34;1.97;;;1.10;;
4148;SDS011;2088;51.032;7.082;2024-02-16T02:10:01;1.57;;;0.97;;
4148;SDS011;2088;51.032;7.082;2024-02-16T02:12:30;3.70;;;1.43;;
4148;SDS011;2088;51.032;7.082;2024-02-16T02:14:57;1.40;;;1.30;;
4148;SDS011;2088;51.032;7.082;2024-02-16T02:17:24;7.53;;;1.17;;
4148;SDS011;2088;51.032;7.082;2024-02-16T02:19:51;10.83;;;1.60;;
4148;SDS011;2088;51.032;7.082;2024-02-16T02:22:19;1.40;;;1.23;;
4148;SDS011;2088;51.032;7.082;2024-02-16T02:24:47;3.80;;;1.23;;
4148;SDS011;2088;51.032;7.082;2024-02-16T02:27:15;2.80;;;1.43;;
4148;SDS011;2088;51.032;7.082;2024-02-16T02:29:42;3.73;;;1.10;;
4148;SDS011;2088;51.032;7.082;2024-02-16T02:32:10;3.50;;;1.20;;
4148;SDS011;2088;51.032;7.082;2024-02-16T02:34:38;4.70;;;1.70;;
4148;SDS011;2088;51.032;7.082;2024-02-16T02:37:05;3.27;;;1.30;;
4148;SDS011;2088;51.032;7.082;2024-02-16T02:39:34;3.43;;;1.63;;
4148;SDS011;2088;51.032;7.082;2024-02-16T02:42:01;2.60;;;1.50;;
4148;SDS011;2088;51.032;7.082;2024-02-16T02:44:28;1.80;;;1.70;;
4148;SDS011;2088;51.032;7.082;2024-02-16T02:46:56;6.47;;;1.67;;
4148;SDS011;2088;51.032;7.082;2024-02-16T02:49:23;5.00;;;1.97;;
4148;SDS011;2088;51.032;7.082;2024-02-16T02:51:50;1.60;;;1.27;;
4148;SDS011;2088;51.032;7.082;2024-02-16T02:54:17;1.83;;;1.23;;
4148;SDS011;2088;51.032;7.082;2024-02-16T02:56:46;4.20;;;1.77;;
4148;SDS011;2088;51.032;7.082;2024-02-16T02:59:13;3.73;;;1.40;;
4148;SDS011;2088;51.032;7.082;2024-02-16T03:01:40;4.50;;;1.20;;
4148;SDS011;2088;51.032;7.082;2024-02-16T03:04:07;1.70;;;1.60;;
4148;SDS011;2088;51.032;7.082;2024-02-16T03:06:34;1.60;;;1.50;;
4148;SDS011;2088;51.032;7.082;2024-02-16T03:09:01;1.20;;;1.07;;
4148;SDS011;2088;51.032;7.082;2024-02-16T03:11:28;1.43;;;1.33;;
4148;SDS011;2088;51.032;7.082;2024-02-16T03:13:57;3.53;;;1.60;;
4148;SDS011;2088;51.032;7.082;2024-02-16T03:16:24;1.83;;;1.20;;
4148;SDS011;2088;51.032;7.082;2024-02-16T03:18:52;1.80;;;1.50;;
4148;SDS011;2088;51.032;7.082;2024-02-16T03:21:19;1.40;;;1.30;;
4148;SDS011;2088;51.032;7.082;2024-02-16T03:23:46;1.53;;;1.20;;
4148;SDS011;2088;51.032;7.082;2024-02-16T03:26:14;4.17;;;1.43;;
4148;SDS011;2088;51.032;7.082;2024-02-16T03:28:43;2.50;;;1.43;;
4148;SDS011;2088;51.032;7.082;2024-02-16T03:31:15;3.47;;;1.40;;
4148;SDS011;2088;51.032;7.082;2024-02-16T03:33:43;3.00;;;1.50;;
4148;SDS011;2088;51.032;7.082;2024-02-16T03:36:10;12.50;;;2.63;;
4148;SDS011;2088;51.032;7.082;2024-02-16T03:38:40;2.50;;;1.43;;
4148;SDS011;2088;51.032;7.082;2024-02-16T03:41:07;2.53;;;1.43;;
4148;SDS011;2088;51.032;7.082;2024-02-16T03:43:34;2.30;;;1.57;;
4148;SDS011;2088;51.032;7.082;2024-02-16T03:46:01;2.97;;;1.73;;
4148;SDS011;2088;51.032;7.082;2024-02-16T03:48:29;5.13;;;1.70;;
4148;SDS011;2088;51.032;7.082;2024-02-16T03:50:56;2.13;;;1.57;;
4148;SDS011;2088;51.032;7.082;2024-02-16T03:53:24;1.90;;;1.40;;
4148;SDS011;2088;51.032;7.082;2024-02-16T03:55:51;4.20;;;1.20;;
4148;SDS011;2088;51.032;7.082;2024-02-16T03:58:18;1.00;;;0.90;;
4148;SDS011;2088;51.032;7.082;2024-02-16T04:00:45;1.23;;;1.13;;
4148;SDS011;2088;51.032;7.082;2024-02-16T04:03:13;2.13;;;1.57;;
4148;SDS011;2088;51.032;7.082;2024-02-16T04:05:42;2.80;;;1.10;;
4148;SDS011;2088;51.032;7.082;2024-02-16T04:08:09;2.70;;;1.03;;
4148;SDS011;2088;51.032;7.082;2024-02-16T04:10:36;4.53;;;1.27;;
4148;SDS011;2088;51.032;7.082;2024-02-16T04:13:03;2.87;;;1.40;;
4148;SDS011;2088;51.032;7.082;2024-02-16T04:15:30;3.73;;;1.40;;
4148;SDS011;2088;51.032;7.082;2024-02-16T04:17:57;1.57;;;1.40;;
4148;SDS011;2088;51.032;7.082;2024-02-16T04:20:24;2.87;;;1.53;;
4148;SDS011;2088;51.032;7.082;2024-02-16T04:22:53;1.90;;;1.10;;
4148;SDS011;2088;51.032;7.082;2024-02-16T04:25:20;9.33;;;1.17;;
4148;SDS011;2088;51.032;7.082;2024-02-16T04:27:47;2.40;;;1.70;;
4148;SDS011;2088;51.032;7.082;2024-02-16T04:30:14;1.50;;;1.23;;
4148;SDS011;2088;51.032;7.082;2024-02-16T04:32:41;3.37;;;1.47;;
4148;SDS011;2088;51.032;7.082;2024-02-16T04:35:08;3.60;;;1.40;;
4148;SDS011;2088;51.032;7.082;2024-02-16T04:37:36;2.70;;;1.53;;
4148;SDS011;2088;51.032;7.082;2024-02-16T04:40:06;1.43;;;1.30;;
4148;SDS011;2088;51.032;7.082;2024-02-16T04:42:34;3.20;;;1.60;;
4148;SDS011;2088;51.032;7.082;2024-02-16T04:45:01;6.00;;;1.50;;
4148;SDS011;2088;51.032;7.082;2024-02-16T04:47:28;5.40;;;1.80;;
4148;SDS011;2088;51.032;7.082;2024-02-16T04:49:55;2.27;;;1.60;;
4148;SDS011;2088;51.032;7.082;2024-02-16T04:52:22;3.10;;;1.50;;
4148;SDS011;2088;51.032;7.082;2024-02-16T04:54:50;4.97;;;1.80;;
4148;SDS011;2088;51.032;7.082;2024-02-16T04:57:18;3.60;;;1.67;;
4148;SDS011;2088;51.032;7.082;2024-02-16T04:59:45;7.77;;;1.63;;
4148;SDS011;2088;51.032;7.082;2024-02-16T05:02:12;1.77;;;1.23;;
4148;SDS011;2088;51.032;7.082;2024-02-16T05:04:40;5.30;;;1.63;;
4148;SDS011;2088;51.032;7.082;2024-02-16T05:07:07;5.93;;;1.80;;
4148;SDS011;2088;51.032;7.082;2024-02-16T05:09:34;6.10;;;1.63;;
4148;SDS011;2088;51.032;7.082;2024-02-16T05:12:01;1.37;;;1.00;;
4148;SDS011;2088;51.032;7.082;2024-02-16T05:14:30;2.50;;;1.20;;
4148;SDS011;2088;51.032;7.082;2024-02-16T05:16:57;2.33;;;1.60;;
4148;SDS011;2088;51.032;7.082;2024-02-16T05:19:24;3.33;;;1.80;;
4148;SDS011;2088;51.032;7.082;2024-02-16T05:21:51;3.97;;;1.87;;
4148;SDS011;2088;51.032;7.082;2024-02-16T05:24:18;2.90;;;1.30;;
4148;SDS011;2088;51.032;7.082;2024-02-16T05:26:45;3.13;;;2.03;;
4148;SDS011;2088;51.032;7.082;2024-02-16T05:29:12;8.33;;;1.40;;
4148;SDS011;2088;51.032;7.082;2024-02-16T05:31:40;4.30;;;1.27;;
4148;SDS011;2088;51.032;7.082;2024-02-16T05:34:08;2.37;;;1.87;;
4148;SDS011;2088;51.032;7.082;2024-02-16T05:36:35;1.33;;;1.23;;
4148;SDS011;2088;51.032;7.082;2024-02-16T05:39:02;1.73;;;0.90;;
4148;SDS011;2088;51.032;7.082;2024-02-16T05:41:44;2.17;;;1.60;;
4148;SDS011;2088;51.032;7.082;2024-02-16T05:44:11;2.60;;;1.73;;
4148;SDS011;2088;51.032;7.082;2024-02-16T05:46:40;1.57;;;1.47;;
4148;SDS011;2088;51.032;7.082;2024-02-16T05:49:07;6.00;;;1.63;;
4148;SDS011;2088;51.032;7.082;2024-02-16T05:51:35;2.50;;;1.93;;
4148;SDS011;2088;51.032;7.082;2024-02-16T05:54:04;1.57;;;1.47;;
4148;SDS011;2088;51.032;7.082;2024-02-16T05:56:32;4.20;;;1.70;;
4148;SDS011;2088;51.032;7.082;2024-02-16T05:59:02;3.43;;;1.63;;
4148;SDS011;2088;51.032;7.082;2024-02-16T06:01:29;2.23;;;1.77;;
4148;SDS011;2088;51.032;7.082;2024-02-16T06:03:57;3.40;;;1.77;;
4148;SDS011;2088;51.032;7.082;2024-02-16T06:06:24;4.30;;;2.73;;
4148;SDS011;2088;51.032;7.082;2024-02-16T06:08:51;6.47;;;2.97;;
4148;SDS011;2088;51.032;7.082;2024-02-16T06:11:18;3.43;;;2.60;;
4148;SDS011;2088;51.032;7.082;2024-02-16T06:13:45;5.07;;;2.47;;
4148;SDS011;2088;51.032;7.082;2024-02-16T06:16:12;3.63;;;1.73;;
4148;SDS011;2088;51.032;7.082;2024-02-16T06:18:39;1.87;;;1.60;;
4148;SDS011;2088;51.032;7.082;2024-02-16T06:21:08;1.80;;;1.40;;
4148;SDS011;2088;51.032;7.082;2024-02-16T06:23:35;2.33;;;1.30;;
4148;SDS011;2088;51.032;7.082;2024-02-16T06:26:02;3.93;;;1.70;;
4148;SDS011;2088;51.032;7.082;2024-02-16T06:28:29;3.10;;;1.77;;
4148;SDS011;2088;51.032;7.082;2024-02-16T06:30:56;2.20;;;1.43;;
4148;SDS011;2088;51.032;7.082;2024-02-16T06:33:23;3.20;;;1.90;;
4148;SDS011;2088;51.032;7.082;2024-02-16T06:35:50;2.17;;;1.30;;
4148;SDS011;2088;51.032;7.082;2024-02-16T06:38:19;2.20;;;1.80;;
4148;SDS011;2088;51.032;7.082;2024-02-16T06:40:46;1.90;;;1.47;;
4148;SDS011;2088;51.032;7.082;2024-02-16T06:43:13;2.93;;;1.27;;
4148;SDS011;2088;51.032;7.082;2024-02-16T06:45:40;1.30;;;1.20;;
4148;SDS011;2088;51.032;7.082;2024-02-16T06:48:07;2.23;;;2.03;;
4148;SDS011;2088;51.032;7.082;2024-02-16T06:50:34;4.30;;;1.83;;
4148;SDS011;2088;51.032;7.082;2024-02-16T06:53:01;2.00;;;1.30;;
4148;SDS011;2088;51.032;7.082;2024-02-16T06:55:30;3.10;;;1.57;;
4148;SDS011;2088;51.032;7.082;2024-02-16T06:57:57;8.30;;;1.97;;
4148;SDS011;2088;51.032;7.082;2024-02-16T07:00:23;2.30;;;2.07;;
4148;SDS011;2088;51.032;7.082;2024-02-16T07:02:50;5.53;;;2.00;;
4148;SDS011;2088;51.032;7.082;2024-02-16T07:05:17;3.97;;;1.90;;
4148;SDS011;2088;51.032;7.082;2024-02-16T07:07:44;2.10;;;1.90;;
4148;SDS011;2088;51.032;7.082;2024-02-16T07:10:11;3.27;;;1.60;;
4148;SDS011;2088;51.032;7.082;2024-02-16T07:12:40;2.70;;;1.73;;
4148;SDS011;2088;51.032;7.082;2024-02-16T07:15:07;1.70;;;1.47;;
4148;SDS011;2088;51.032;7.082;2024-02-16T07:17:34;2.33;;;1.40;;
4148;SDS011;2088;51.032;7.082;2024-02-16T07:20:02;1.67;;;1.47;;
4148;SDS011;2088;51.032;7.082;2024-02-16T07:22:30;2.73;;;1.20;;
4148;SDS011;2088;51.032;7.082;2024-02-16T07:24:57;5.70;;;1.87;;
4148;SDS011;2088;51.032;7.082;2024-02-16T07:27:25;5.80;;;1.63;;
4148;SDS011;2088;51.032;7.082;2024-02-16T07:29:54;5.20;;;1.50;;
4148;SDS011;2088;51.032;7.082;2024-02-16T07:32:21;5.10;;;2.03;;
4148;SDS011;2088;51.032;7.082;2024-02-16T07:34:48;1.70;;;1.10;;
4148;SDS011;2088;51.032;7.082;2024-02-16T07:37:16;5.37;;;1.70;;
4148;SDS011;2088;51.032;7.082;2024-02-16T07:39:43;1.87;;;1.40;;
4148;SDS011;2088;51.032;7.082;2024-02-16T07:42:10;5.33;;;1.73;;
4148;SDS011;2088;51.032;7.082;2024-02-16T07:44:38;5.83;;;1.80;;
4148;SDS011;2088;51.032;7.082;2024-02-16T07:47:06;2.17;;;1.23;;
4148;SDS011;2088;51.032;7.082;2024-02-16T07:49:33;3.23;;;1.60;;
4148;SDS011;2088;51.032;7.082;2024-02-16T07:52:00;2.53;;;1.50;;
4148;SDS011;2088;51.032;7.082;2024-02-16T07:54:27;1.90;;;1.43;;
4148;SDS011;2088;51.032;7.082;2024-02-16T07:56:55;2.63;;;1.63;;
4148;SDS011;2088;51.032;7.082;2024-02-16T07:59:24;2.40;;;1.90;;
4148;SDS011;2088;51.032;7.082;2024-02-16T08:01:51;2.77;;;2.07;;
4148;SDS011;2088;51.032;7.082;2024-02-16T08:04:20;3.73;;;1.57;;
4148;SDS011;2088;51.032;7.082;2024-02-16T08:06:47;8.23;;;1.93;;
4148;SDS011;2088;51.032;7.082;2024-02-16T08:09:14;1.67;;;1.30;;
4148;SDS011;2088;51.032;7.082;2024-02-16T08:11:41;1.83;;;1.40;;
4148;SDS011;2088;51.032;7.082;2024-02-16T08:14:09;1.40;;;1.10;;
4148;SDS011;2088;51.032;7.082;2024-02-16T08:16:36;1.90;;;1.70;;
4148;SDS011;2088;51.032;7.082;2024-02-16T08:19:03;2.20;;;1.27;;
4148;SDS011;2088;51.032;7.082;2024-02-16T08:21:31;7.70;;;1.60;;
4148;SDS011;2088;51.032;7.082;2024-02-16T08:23:59;2.40;;;1.63;;
4148;SDS011;2088;51.032;7.082;2024-02-16T08:26:26;2.70;;;1.77;;
4148;SDS011;2088;51.032;7.082;2024-02-16T08:28:53;4.23;;;2.50;;
4148;SDS011;2088;51.032;7.082;2024-02-16T08:31:21;4.20;;;1.80;;
4148;SDS011;2088;51.032;7.082;2024-02-16T08:33:48;3.67;;;1.40;;
4148;SDS011;2088;51.032;7.082;2024-02-16T08:36:15;3.20;;;1.77;;
4148;SDS011;2088;51.032;7.082;2024-02-16T08:38:44;1.97;;;1.50;;
4148;SDS011;2088;51.032;7.082;2024-02-16T08:41:11;6.73;;;1.93;;
4148;SDS011;2088;51.032;7.082;2024-02-16T08:43:38;3.33;;;1.87;;
4148;SDS011;2088;51.032;7.082;2024-02-16T08:46:05;3.90;;;1.83;;
4148;SDS011;2088;51.032;7.082;2024-02-16T08:48:32;1.70;;;1.60;;
4148;SDS011;2088;51.032;7.082;2024-02-16T08:51:00;5.43;;;1.70;;
4148;SDS011;2088;51.032;7.082;2024-02-16T08:53:27;2.60;;;1.40;;
4148;SDS011;2088;51.032;7.082;2024-02-16T08:55:55;2.97;;;1.70;;
4148;SDS011;2088;51.032;7.082;2024-02-16T08:58:22;5.70;;;1.67;;
4148;SDS011;2088;51.032;7.082;2024-02-16T09:00:49;2.57;;;1.60;;
4148;SDS011;2088;51.032;7.082;2024-02-16T09:03:17;3.90;;;1.70;;
4148;SDS011;2088;51.032;7.082;2024-02-16T09:05:44;3.33;;;2.20;;
4148;SDS011;2088;51.032;7.082;2024-02-16T09:08:11;2.10;;;1.50;;
4148;SDS011;2088;51.032;7.082;2024-02-16T09:10:38;5.33;;;2.10;;
4148;SDS011;2088;51.032;7.082;2024-02-16T09:13:07;3.27;;;1.67;;
4148;SDS011;2088;51.032;7.082;2024-02-16T09:15:34;3.30;;;1.50;;
4148;SDS011;2088;51.032;7.082;2024-02-16T09:18:01;3.20;;;1.70;;
4148;SDS011;2088;51.032;7.082;2024-02-16T09:20:28;2.23;;;1.80;;
4148;SDS011;2088;51.032;7.082;2024-02-16T09:22:55;1.53;;;1.43;;
4148;SDS011;2088;51.032;7.082;2024-02-16T09:25:23;3.23;;;2.03;;
4148;SDS011;2088;51.032;7.082;2024-02-16T09:27:50;2.07;;;1.67;;
4148;SDS011;2088;51.032;7.082;2024-02-16T09:30:19;1.87;;;1.63;;
4148;SDS011;2088;51.032;7.082;2024-02-16T09:32:46;2.70;;;1.47;;
4148;SDS011;2088;51.032;7.082;2024-02-16T09:35:13;4.47;;;2.00;;
4148;SDS011;2088;51.032;7.082;2024-02-16T09:37:41;2.13;;;1.60;;
4148;SDS011;2088;51.032;7.082;2024-02-16T09:40:11;3.67;;;1.50;;
4148;SDS011;2088;51.032;7.082;2024-02-16T09:42:38;1.97;;;1.60;;
4148;SDS011;2088;51.032;7.082;2024-02-16T09:45:06;2.80;;;1.93;;
4148;SDS011;2088;51.032;7.082;2024-02-16T09:47:34;4.60;;;2.00;;
4148;SDS011;2088;51.032;7.082;2024-02-16T09:50:02;2.77;;;2.00;;
4148;SDS011;2088;51.032;7.082;2024-02-16T09:52:29;2.90;;;1.93;;
4148;SDS011;2088;51.032;7.082;2024-02-16T09:54:56;2.67;;;1.40;;
4148;SDS011;2088;51.032;7.082;2024-02-16T09:57:23;4.43;;;1.80;;
4148;SDS011;2088;51.032;7.082;2024-02-16T09:59:51;2.83;;;1.50;;
4148;SDS011;2088;51.032;7.082;2024-02-16T10:02:18;2.10;;;1.60;;
4148;SDS011;2088;51.032;7.082;2024-02-16T10:04:46;3.00;;;2.03;;
4148;SDS011;2088;51.032;7.082;2024-02-16T10:07:13;3.53;;;1.97;;
4148;SDS011;2088;51.032;7.082;2024-02-16T10:09:40;10.23;;;2.73;;
4148;SDS011;2088;51.032;7.082;2024-02-16T10:12:07;3.33;;;1.90;;
4148;SDS011;2088;51.032;7.082;2024-02-16T10:14:34;4.23;;;1.40;;
4148;SDS011;2088;51.032;7.082;2024-02-16T10:17:03;1.77;;;1.40;;
4148;SDS011;2088;51.032;7.082;2024-02-16T10:19:31;2.70;;;1.80;;
4148;SDS011;2088;51.032;7.082;2024-02-16T10:22:09;2.07;;;1.67;;
4148;SDS011;2088;51.032;7.082;2024-02-16T10:24:36;3.47;;;1.60;;
4148;SDS011;2088;51.032;7.082;2024-02-16T10:27:04;1.43;;;1.20;;
4148;SDS011;2088;51.032;7.082;2024-02-16T10:29:32;4.40;;;1.97;;
4148;SDS011;2088;51.032;7.082;2024-02-16T10:32:00;3.40;;;1.80;;
4148;SDS011;2088;51.032;7.082;2024-02-16T10:34:27;8.90;;;2.00;;
4148;SDS011;2088;51.032;7.082;2024-02-16T10:36:55;4.60;;;1.70;;
4148;SDS011;2088;51.032;7.082;2024-02-16T10:39:23;7.17;;;1.80;;
4148;SDS011;2088;51.032;7.082;2024-02-16T10:41:51;5.00;;;1.93;;
4148;SDS011;2088;51.032;7.082;2024-02-16T10:44:18;6.00;;;2.20;;
4148;SDS011;2088;51.032;7.082;2024-02-16T10:46:45;3.07;;;2.07;;
4148;SDS011;2088;51.032;7.082;2024-02-16T10:49:12;6.13;;;2.20;;
4148;SDS011;2088;51.032;7.082;2024-02-16T10:51:42;3.13;;;2.00;;
4148;SDS011;2088;51.032;7.082;2024-02-16T10:54:10;1.80;;;1.43;;
4148;SDS011;2088;51.032;7.082;2024-02-16T10:56:40;1.70;;;1.50;;
4148;SDS011;2088;51.032;7.082;2024-02-16T10:59:08;3.73;;;1.90;;
4148;SDS011;2088;51.032;7.082;2024-02-16T11:01:38;3.30;;;1.80;;
4148;SDS011;2088;51.032;7.082;2024-02-16T11:04:06;1.50;;;1.40;;
4148;SDS011;2088;51.032;7.082;2024-02-16T11:06:44;3.60;;;1.50;;
4148;SDS011;2088;51.032;7.082;2024-02-16T11:09:11;4.07;;;1.63;;
4148;SDS011;2088;51.032;7.082;2024-02-16T11:11:38;2.03;;;1.40;;
4148;SDS011;2088;51.032;7.082;2024-02-16T11:14:14;4.90;;;1.83;;
4148;SDS011;2088;51.032;7.082;2024-02-16T11:16:45;3.30;;;1.67;;
4148;SDS011;2088;51.032;7.082;2024-02-16T11:19:12;4.50;;;1.53;;
4148;SDS011;2088;51.032;7.082;2024-02-16T11:21:54;6.50;;;2.00;;
4148;SDS011;2088;51.032;7.082;2024-02-16T11:24:21;2.47;;;2.10;;
4148;SDS011;2088;51.032;7.082;2024-02-16T11:26:54;3.13;;;1.50;;
4148;SDS011;2088;51.032;7.082;2024-02-16T11:29:23;2.33;;;1.93;;
4148;SDS011;2088;51.032;7.082;2024-02-16T11:31:50;5.17;;;1.97;;
4148;SDS011;2088;51.032;7.082;2024-02-16T11:34:23;6.03;;;2.00;;
4148;SDS011;2088;51.032;7.082;2024-02-16T11:36:51;4.90;;;2.37;;
4148;SDS011;2088;51.032;7.082;2024-02-16T11:39:19;3.00;;;1.80;;
4148;SDS011;2088;51.032;7.082;2024-02-16T11:41:46;6.70;;;2.07;;
4148;SDS011;2088;51.032;7.082;2024-02-16T11:44:13;4.60;;;2.47;;
4148;SDS011;2088;51.032;7.082;2024-02-16T11:46:42;5.80;;;1.57;;
4148;SDS011;2088;51.032;7.082;2024-02-16T11:49:09;2.47;;;2.10;;
4148;SDS011;2088;51.032;7.082;2024-02-16T11:51:37;4.53;;;2.13;;
4148;SDS011;2088;51.032;7.082;2024-02-16T11:54:04;3.90;;;1.80;;
4148;SDS011;2088;51.032;7.082;2024-02-16T11:56:32;3.47;;;2.00;;
4148;SDS011;2088;51.032;7.082;2024-02-16T11:58:59;12.03;;;2.50;;
4148;SDS011;2088;51.032;7.082;2024-02-16T12:01:26;2.57;;;2.30;;
4148;SDS011;2088;51.032;7.082;2024-02-16T12:03:55;3.70;;;2.70;;
4148;SDS011;2088;51.032;7.082;2024-02-16T12:06:22;4.83;;;2.63;;
4148;SDS011;2088;51.032;7.082;2024-02-16T12:08:50;8.63;;;2.30;;
4148;SDS011;2088;51.032;7.082;2024-02-16T12:11:18;4.03;;;1.80;;
4148;SDS011;2088;51.032;7.082;2024-02-16T12:13:45;4.23;;;1.77;;
4148;SDS011;2088;51.032;7.082;2024-02-16T12:16:12;3.00;;;2.00;;
4148;SDS011;2088;51.032;7.082;2024-02-16T12:18:39;4.40;;;2.10;;
4148;SDS011;2088;51.032;7.082;2024-02-16T12:21:08;4.00;;;2.33;;
4148;SDS011;2088;51.032;7.082;2024-02-16T12:23:35;2.50;;;2.07;;
4148;SDS011;2088;51.032;7.082;2024-02-16T12:26:02;4.63;;;1.80;;
4148;SDS011;2088;51.032;7.082;2024-02-16T12:28:30;2.13;;;1.83;;
4148;SDS011;2088;51.032;7.082;2024-02-16T12:30:58;3.90;;;2.33;;
4148;SDS011;2088;51.032;7.082;2024-02-16T12:33:25;2.93;;;2.30;;
4148;SDS011;2088;51.032;7.082;2024-02-16T12:35:52;2.07;;;1.90;;
4148;SDS011;2088;51.032;7.082;2024-02-16T12:38:21;7.30;;;2.20;;
4148;SDS011;2088;51.032;7.082;2024-02-16T12:40:48;6.03;;;2.50;;
4148;SDS011;2088;51.032;7.082;2024-02-16T12:43:15;6.80;;;2.23;;
4148;SDS011;2088;51.032;7.082;2024-02-16T12:45:44;3.93;;;1.93;;
4148;SDS011;2088;51.032;7.082;2024-02-16T12:48:11;3.60;;;2.33;;
4148;SDS011;2088;51.032;7.082;2024-02-16T12:50:39;6.50;;;2.37;;
4148;SDS011;2088;51.032;7.082;2024-02-16T12:53:07;2.53;;;2.33;;
4148;SDS011;2088;51.032;7.082;2024-02-16T12:55:35;5.60;;;3.60;;
4148;SDS011;2088;51.032;7.082;2024-02-16T12:58:03;3.53;;;1.80;;
4148;SDS011;2088;51.032;7.082;2024-02-16T13:00:30;4.60;;;2.30;;
4148;SDS011;2088;51.032;7.082;2024-02-16T13:02:57;7.70;;;2.47;;
4148;SDS011;2088;51.032;7.082;2024-02-16T13:05:24;3.73;;;2.30;;
4148;SDS011;2088;51.032;7.082;2024-02-16T13:07:51;2.80;;;2.20;;
4148;SDS011;2088;51.032;7.082;2024-02-16T13:10:18;6.90;;;2.57;;
4148;SDS011;2088;51.032;7.082;2024-02-16T13:12:46;8.30;;;2.20;;
4148;SDS011;2088;51.032;7.082;2024-02-16T13:15:13;6.17;;;2.60;;
4148;SDS011;2088;51.032;7.082;2024-02-16T13:17:40;5.77;;;2.40;;
4148;SDS011;2088;51.032;7.082;2024-02-16T13:20:08;4.33;;;2.10;;
4148;SDS011;2088;51.032;7.082;2024-02-16T13:22:35;4.37;;;3.00;;
4148;SDS011;2088;51.032;7.082;2024-02-16T13:25:02;8.10;;;2.83;;
4148;SDS011;2088;51.032;7.082;2024-02-16T13:27:30;2.50;;;2.27;;
4148;SDS011;2088;51.032;7.082;2024-02-16T13:29:59;5.33;;;2.57;;
4148;SDS011;2088;51.032;7.082;2024-02-16T13:32:26;3.60;;;2.50;;
4148;SDS011;2088;51.032;7.082;2024-02-16T13:34:53;5.90;;;2.77;;
4148;SDS011;2088;51.032;7.082;2024-02-16T13:37:20;5.57;;;2.43;;
4148;SDS011;2088;51.032;7.082;2024-02-16T13:39:47;8.43;;;2.97;;
4148;SDS011;2088;51.032;7.082;2024-02-16T13:42:14;4.90;;;2.30;;
4148;SDS011;2088;51.032;7.082;2024-02-16T13:44:41;4.00;;;3.00;;
4148;SDS011;2088;51.032;7.082;2024-02-16T13:47:10;9.33;;;3.00;;
4148;SDS011;2088;51.032;7.082;2024-02-16T13:49:37;4.37;;;2.97;;
4148;SDS011;2088;51.032;7.082;2024-02-16T13:52:04;5.30;;;3.07;;
4148;SDS011;2088;51.032;7.082;2024-02-16T13:54:33;15.47;;;2.83;;
4148;SDS011;2088;51.032;7.082;2024-02-16T13:57:01;6.90;;;3.00;;
4148;SDS011;2088;51.032;7.082;2024-02-16T13:59:28;5.33;;;3.60;;
4148;SDS011;2088;51.032;7.082;2024-02-16T14:01:56;4.37;;;3.27;;
4148;SDS011;2088;51.032;7.082;2024-02-16T14:04:25;4.53;;;2.70;;
4148;SDS011;2088;51.032;7.082;2024-02-16T14:06:52;7.13;;;3.03;;
4148;SDS011;2088;51.032;7.082;2024-02-16T14:09:19;3.83;;;3.33;;
4148;SDS011;2088;51.032;7.082;2024-02-16T14:11:46;4.70;;;2.60;;
4148;SDS011;2088;51.032;7.082;2024-02-16T14:14:14;6.90;;;3.30;;
4148;SDS011;2088;51.032;7.082;2024-02-16T14:16:41;4.17;;;3.00;;
4148;SDS011;2088;51.032;7.082;2024-02-16T14:19:09;8.30;;;3.40;;
4148;SDS011;2088;51.032;7.082;2024-02-16T14:21:37;4.33;;;3.20;;
4148;SDS011;2088;51.032;7.082;2024-02-16T14:24:04;5.17;;;3.93;;
4148;SDS011;2088;51.032;7.082;2024-02-16T14:26:33;5.50;;;3.10;;
4148;SDS011;2088;51.032;7.082;2024-02-16T14:29:00;4.10;;;3.50;;
4148;SDS011;2088;51.032;7.082;2024-02-16T14:31:27;5.33;;;3.30;;
4148;SDS011;2088;51.032;7.082;2024-02-16T14:33:54;8.93;;;3.07;;
4148;SDS011;2088;51.032;7.082;2024-02-16T14:36:21;9.40;;;3.50;;
4148;SDS011;2088;51.032;7.082;2024-02-16T14:38:49;6.80;;;4.13;;
4148;SDS011;2088;51.032;7.082;2024-02-16T14:41:16;10.93;;;4.13;;
4148;SDS011;2088;51.032;7.082;2024-02-16T14:43:43;7.00;;;3.60;;
4148;SDS011;2088;51.032;7.082;2024-02-16T14:46:11;3.47;;;3.17;;
4148;SDS011;2088;51.032;7.082;2024-02-16T14:48:40;8.07;;;3.90;;
4148;SDS011;2088;51.032;7.082;2024-02-16T14:51:07;7.50;;;3.83;;
4148;SDS011;2088;51.032;7.082;2024-02-16T14:53:34;9.60;;;3.60;;
4148;SDS011;2088;51.032;7.082;2024-02-16T14:56:03;10.50;;;3.43;;
4148;SDS011;2088;51.032;7.082;2024-02-16T14:58:30;8.23;;;3.87;;
4148;SDS011;2088;51.032;7.082;2024-02-16T15:00:58;7.70;;;4.50;;
4148;SDS011;2088;51.032;7.082;2024-02-16T15:03:25;8.50;;;4.63;;
4148;SDS011;2088;51.032;7.082;2024-02-16T15:05:55;11.93;;;4.40;;
4148;SDS011;2088;51.032;7.082;2024-02-16T15:08:22;7.03;;;5.20;;
4148;SDS011;2088;51.032;7.082;2024-02-16T15:10:49;12.47;;;4.67;;
4148;SDS011;2088;51.032;7.082;2024-02-16T15:13:18;9.27;;;4.73;;
4148;SDS011;2088;51.032;7.082;2024-02-16T15:15:47;6.13;;;4.57;;
4148;SDS011;2088;51.032;7.082;2024-02-16T15:18:15;9.80;;;5.43;;